sensor_id;sensor_type;location;lat;lon;timestamp;pressure;altitude;pressure_sealevel;temperature;humidity
37486;BME280;23341;50.296;18.960;2022-11-03T00:02:44;113062.75;;;-144.43;99.33
37486;BME280;23341;50.296;18.960;2022-11-03T00:08:21;113062.75;;;-144.43;99.63
37486;BME280;23341;50.296;18.960;2022-11-03T00:13:59;113062.75;;;-144.43;100.00
37486;BME280;23341;50.296;18.960;2022-11-03T00:19:30;113062.75;;;-144.43;100.00
37486;BME280;23341;50.296;18.960;2022-11-03T00:25:07;113062.75;;;-144.43;100.00
37486;BME280;23341;50.296;18.960;2022-11-03T00:30:45;113062.75;;;-144.43;100.00
37486;BME280;23341;50.296;18.960;2022-11-03T00:36:24;113062.75;;;-144.43;100.00
37486;BME280;23341;50.296;18.960;2022-11-03T00:42:02;113062.75;;;-144.43;100.00
37486;BME280;23341;50.296;18.960;2022-11-03T00:47:40;113062.75;;;-144.43;100.00
37486;BME280;23341;50.296;18.960;2022-11-03T00:53:31;113062.75;;;-144.43;100.00
37486;BME280;23341;50.296;18.960;2022-11-03T00:59:09;113062.75;;;-144.43;100.00
37486;BME280;23341;50.296;18.960;2022-11-03T01:04:47;113062.75;;;-144.43;100.00
37486;BME280;23341;50.296;18.960;2022-11-03T01:10:42;113062.75;;;-144.43;100.00
37486;BME280;23341;50.296;18.960;2022-11-03T01:16:33;113062.75;;;-144.43;100.00
37486;BME280;23341;50.296;18.960;2022-11-03T01:22:12;113062.75;;;-144.43;100.00
37486;BME280;23341;50.296;18.960;2022-11-03T01:27:49;113062.75;;;-144.43;100.00
37486;BME280;23341;50.296;18.960;2022-11-03T01:33:31;113062.75;;;-144.43;100.00
37486;BME280;23341;50.296;18.960;2022-11-03T01:39:11;113062.75;;;-144.43;100.00
37486;BME280;23341;50.296;18.960;2022-11-03T01:44:48;113062.75;;;-144.43;100.00
37486;BME280;23341;50.296;18.960;2022-11-03T01:50:25;113062.75;;;-144.43;100.00
37486;BME280;23341;50.296;18.960;2022-11-03T01:56:04;113062.75;;;-144.43;100.00
37486;BME280;23341;50.296;18.960;2022-11-03T02:01:41;113062.75;;;-144.43;100.00
37486;BME280;23341;50.296;18.960;2022-11-03T02:07:23;113062.75;;;-144.43;100.00
37486;BME280;23341;50.296;18.960;2022-11-03T02:13:06;113062.75;;;-144.43;100.00
37486;BME280;23341;50.296;18.960;2022-11-03T02:18:46;113062.75;;;-144.43;100.00
37486;BME280;23341;50.296;18.960;2022-11-03T02:24:28;113062.75;;;-144.43;100.00
37486;BME280;23341;50.296;18.960;2022-11-03T02:30:13;113062.75;;;-144.43;100.00
37486;BME280;23341;50.296;18.960;2022-11-03T02:35:55;113062.75;;;-144.43;100.00
37486;BME280;23341;50.296;18.960;2022-11-03T02:41:36;113062.75;;;-144.43;100.00
37486;BME280;23341;50.296;18.960;2022-11-03T02:47:15;113062.75;;;-144.43;100.00
37486;BME280;23341;50.296;18.960;2022-11-03T02:52:53;113062.75;;;-144.43;100.00
37486;BME280;23341;50.296;18.960;2022-11-03T02:58:33;113062.75;;;-144.43;100.00
37486;BME280;23341;50.296;18.960;2022-11-03T03:04:45;113062.75;;;-144.43;100.00
37486;BME280;23341;50.296;18.960;2022-11-03T03:10:25;113062.75;;;-144.43;100.00
37486;BME280;23341;50.296;18.960;2022-11-03T03:16:09;113062.75;;;-144.43;100.00
37486;BME280;23341;50.296;18.960;2022-11-03T03:21:50;113062.75;;;-144.43;100.00
37486;BME280;23341;50.296;18.960;2022-11-03T03:27:30;113062.75;;;-144.43;100.00
37486;BME280;23341;50.296;18.960;2022-11-03T03:33:11;113062.75;;;-144.43;100.00
37486;BME280;23341;50.296;18.960;2022-11-03T03:38:52;113062.75;;;-144.43;100.00
37486;BME280;23341;50.296;18.960;2022-11-03T03:44:31;113062.75;;;-144.43;100.00
37486;BME280;23341;50.296;18.960;2022-11-03T03:50:09;113062.75;;;-144.43;100.00
37486;BME280;23341;50.296;18.960;2022-11-03T03:55:49;113062.75;;;-144.43;100.00
37486;BME280;23341;50.296;18.960;2022-11-03T04:01:27;113062.75;;;-144.43;100.00
37486;BME280;23341;50.296;18.960;2022-11-03T04:07:04;113062.75;;;-144.43;100.00
37486;BME280;23341;50.296;18.960;2022-11-03T04:13:05;113062.75;;;-144.43;100.00
37486;BME280;23341;50.296;18.960;2022-11-03T04:19:01;113062.75;;;-144.43;100.00
37486;BME280;23341;50.296;18.960;2022-11-03T04:24:57;113062.75;;;-144.43;100.00
37486;BME280;23341;50.296;18.960;2022-11-03T04:30:35;113062.75;;;-144.43;100.00
37486;BME280;23341;50.296;18.960;2022-11-03T04:36:19;113062.75;;;-144.43;100.00
37486;BME280;23341;50.296;18.960;2022-11-03T04:41:57;113062.75;;;-144.43;100.00
37486;BME280;23341;50.296;18.960;2022-11-03T04:47:35;113062.75;;;-144.43;100.00
37486;BME280;23341;50.296;18.960;2022-11-03T04:53:13;113062.75;;;-144.43;100.00
37486;BME280;23341;50.296;18.960;2022-11-03T04:58:52;113062.75;;;-144.43;100.00
37486;BME280;23341;50.296;18.960;2022-11-03T05:04:30;113062.75;;;-144.43;100.00
37486;BME280;23341;50.296;18.960;2022-11-03T05:10:10;113062.75;;;-144.43;100.00
37486;BME280;23341;50.296;18.960;2022-11-03T05:15:52;113062.75;;;-144.43;100.00
37486;BME280;23341;50.296;18.960;2022-11-03T05:21:31;113062.75;;;-144.43;100.00
37486;BME280;23341;50.296;18.960;2022-11-03T05:27:10;113062.75;;;-144.43;100.00
37486;BME280;23341;50.296;18.960;2022-11-03T05:32:49;113062.75;;;-144.43;100.00
37486;BME280;23341;50.296;18.960;2022-11-03T05:38:30;113062.75;;;-144.43;100.00
37486;BME280;23341;50.296;18.960;2022-11-03T05:44:20;113062.75;;;-144.43;100.00
37486;BME280;23341;50.296;18.960;2022-11-03T05:50:10;113062.75;;;-144.43;100.00
37486;BME280;23341;50.296;18.960;2022-11-03T05:55:49;113062.75;;;-144.43;100.00
37486;BME280;23341;50.296;18.960;2022-11-03T06:01:28;113062.75;;;-144.43;100.00
37486;BME280;23341;50.296;18.960;2022-11-03T06:07:12;113062.75;;;-144.43;100.00
37486;BME280;23341;50.296;18.960;2022-11-03T06:12:55;113062.75;;;-144.43;100.00
37486;BME280;23341;50.296;18.960;2022-11-03T06:18:36;113062.75;;;-144.43;100.00
37486;BME280;23341;50.296;18.960;2022-11-03T06:24:13;113062.75;;;-144.43;100.00
37486;BME280;23341;50.296;18.960;2022-11-03T06:30:20;113062.75;;;-144.43;100.00
37486;BME280;23341;50.296;18.960;2022-11-03T06:36:00;113062.75;;;-144.43;100.00
37486;BME280;23341;50.296;18.960;2022-11-03T06:41:39;113062.75;;;-144.43;100.00
37486;BME280;23341;50.296;18.960;2022-11-03T06:47:22;113062.75;;;-144.43;100.00
37486;BME280;23341;50.296;18.960;2022-11-03T06:53:24;113062.75;;;-144.43;95.70
37486;BME280;23341;50.296;18.960;2022-11-03T06:59:02;113062.75;;;-144.43;74.34
37486;BME280;23341;50.296;18.960;2022-11-03T07:04:40;113062.75;;;-144.43;75.30
37486;BME280;23341;50.296;18.960;2022-11-03T07:10:17;113062.75;;;-144.43;72.21
37486;BME280;23341;50.296;18.960;2022-11-03T07:15:54;113062.75;;;-144.43;63.05
37486;BME280;23341;50.296;18.960;2022-11-03T07:22:03;113062.75;;;-144.43;58.90
37486;BME280;23341;50.296;18.960;2022-11-03T07:27:43;113062.75;;;-144.43;61.86
37486;BME280;23341;50.296;18.960;2022-11-03T07:33:22;113062.75;;;-144.43;67.80
37486;BME280;23341;50.296;18.960;2022-11-03T07:39:10;113062.75;;;-144.43;62.35
37486;BME280;23341;50.296;18.960;2022-11-03T07:44:54;113062.75;;;-144.43;62.03
37486;BME280;23341;50.296;18.960;2022-11-03T07:50:32;113062.75;;;-144.43;65.46
37486;BME280;23341;50.296;18.960;2022-11-03T07:56:17;113062.75;;;-144.43;70.62
37486;BME280;23341;50.296;18.960;2022-11-03T08:01:56;113062.75;;;-144.43;66.92
37486;BME280;23341;50.296;18.960;2022-11-03T08:07:33;113062.75;;;-144.43;67.48
37486;BME280;23341;50.296;18.960;2022-11-03T08:13:11;113062.75;;;-144.43;64.11
37486;BME280;23341;50.296;18.960;2022-11-03T08:18:48;113062.75;;;-144.43;62.83
37486;BME280;23341;50.296;18.960;2022-11-03T08:24:25;113062.75;;;-144.43;61.45
37486;BME280;23341;50.296;18.960;2022-11-03T08:30:08;113062.75;;;-144.43;62.11
37486;BME280;23341;50.296;18.960;2022-11-03T08:36:06;113062.75;;;-144.43;62.20
37486;BME280;23341;50.296;18.960;2022-11-03T08:41:44;113062.75;;;-144.43;60.88
37486;BME280;23341;50.296;18.960;2022-11-03T08:47:22;113062.75;;;-144.43;61.10
37486;BME280;23341;50.296;18.960;2022-11-03T08:52:59;113062.75;;;-144.43;58.92
37486;BME280;23341;50.296;18.960;2022-11-03T08:58:36;113062.75;;;-144.43;57.28
37486;BME280;23341;50.296;18.960;2022-11-03T09:04:14;113062.75;;;-144.43;58.83
37486;BME280;23341;50.296;18.960;2022-11-03T09:09:51;113062.75;;;-144.43;57.77
37486;BME280;23341;50.296;18.960;2022-11-03T09:15:48;113062.75;;;-144.43;58.97
37486;BME280;23341;50.296;18.960;2022-11-03T09:21:26;113062.75;;;-144.43;57.29
37486;BME280;23341;50.296;18.960;2022-11-03T09:27:03;113062.75;;;-144.43;57.64
37486;BME280;23341;50.296;18.960;2022-11-03T09:32:40;113062.75;;;-144.43;56.51
37486;BME280;23341;50.296;18.960;2022-11-03T09:38:18;113062.75;;;-144.43;56.16
37486;BME280;23341;50.296;18.960;2022-11-03T09:43:56;113062.75;;;-144.43;53.26
37486;BME280;23341;50.296;18.960;2022-11-03T09:49:35;113062.75;;;-144.43;54.34
37486;BME280;23341;50.296;18.960;2022-11-03T09:55:15;113062.75;;;-144.43;52.42
37486;BME280;23341;50.296;18.960;2022-11-03T10:00:53;113062.75;;;-144.43;50.89
37486;BME280;23341;50.296;18.960;2022-11-03T10:06:30;113062.75;;;-144.43;49.96
37486;BME280;23341;50.296;18.960;2022-11-03T10:12:09;113062.75;;;-144.43;47.27
37486;BME280;23341;50.296;18.960;2022-11-03T10:17:46;113062.75;;;-144.43;47.02
37486;BME280;23341;50.296;18.960;2022-11-03T10:23:24;113062.75;;;-144.43;46.53
37486;BME280;23341;50.296;18.960;2022-11-03T10:29:04;113062.75;;;-144.43;47.24
37486;BME280;23341;50.296;18.960;2022-11-03T10:34:46;113062.75;;;-144.43;47.53
37486;BME280;23341;50.296;18.960;2022-11-03T10:40:34;113062.75;;;-144.43;44.20
37486;BME280;23341;50.296;18.960;2022-11-03T10:46:20;113062.75;;;-144.43;43.77
37486;BME280;23341;50.296;18.960;2022-11-03T10:52:17;113062.75;;;-144.43;42.33
37486;BME280;23341;50.296;18.960;2022-11-03T10:57:54;113062.75;;;-144.43;42.32
37486;BME280;23341;50.296;18.960;2022-11-03T11:03:38;113062.75;;;-144.43;39.37
37486;BME280;23341;50.296;18.960;2022-11-03T11:09:21;113062.75;;;-144.43;41.02
37486;BME280;23341;50.296;18.960;2022-11-03T11:14:59;113062.75;;;-144.43;40.03
37486;BME280;23341;50.296;18.960;2022-11-03T11:20:39;113062.75;;;-144.43;41.52
37486;BME280;23341;50.296;18.960;2022-11-03T11:26:40;113062.75;;;-144.43;40.38
37486;BME280;23341;50.296;18.960;2022-11-03T11:32:55;113062.75;;;-144.43;40.99
37486;BME280;23341;50.296;18.960;2022-11-03T11:38:55;113062.75;;;-144.43;40.98
37486;BME280;23341;50.296;18.960;2022-11-03T11:45:02;113062.75;;;-144.43;39.93
37486;BME280;23341;50.296;18.960;2022-11-03T11:50:39;113062.75;;;-144.43;39.61
37486;BME280;23341;50.296;18.960;2022-11-03T11:56:17;113062.75;;;-144.43;39.54
37486;BME280;23341;50.296;18.960;2022-11-03T12:01:55;113062.75;;;-144.43;40.30
37486;BME280;23341;50.296;18.960;2022-11-03T12:07:33;113062.75;;;-144.43;39.31
37486;BME280;23341;50.296;18.960;2022-11-03T12:13:37;113062.75;;;-144.43;39.27
37486;BME280;23341;50.296;18.960;2022-11-03T12:19:39;113062.75;;;-144.43;35.54
37486;BME280;23341;50.296;18.960;2022-11-03T12:25:33;113062.75;;;-144.43;36.19
37486;BME280;23341;50.296;18.960;2022-11-03T12:31:14;113062.75;;;-144.43;37.48
37486;BME280;23341;50.296;18.960;2022-11-03T12:37:05;113062.75;;;-144.43;36.75
37486;BME280;23341;50.296;18.960;2022-11-03T12:42:42;113062.75;;;-144.43;36.33
37486;BME280;23341;50.296;18.960;2022-11-03T12:48:21;113062.75;;;-144.43;37.92
37486;BME280;23341;50.296;18.960;2022-11-03T12:54:03;113062.75;;;-144.43;37.68
37486;BME280;23341;50.296;18.960;2022-11-03T12:59:40;113062.75;;;-144.43;38.39
37486;BME280;23341;50.296;18.960;2022-11-03T13:05:20;113062.75;;;-144.43;37.90
37486;BME280;23341;50.296;18.960;2022-11-03T13:10:57;113062.75;;;-144.43;37.70
37486;BME280;23341;50.296;18.960;2022-11-03T13:16:54;113062.75;;;-144.43;37.78
37486;BME280;23341;50.296;18.960;2022-11-03T13:22:32;113062.75;;;-144.43;38.15
37486;BME280;23341;50.296;18.960;2022-11-03T13:28:09;113062.75;;;-144.43;38.87
37486;BME280;23341;50.296;18.960;2022-11-03T13:33:46;113062.75;;;-144.43;39.17
37486;BME280;23341;50.296;18.960;2022-11-03T13:39:27;113062.75;;;-144.43;40.06
37486;BME280;23341;50.296;18.960;2022-11-03T13:45:05;113062.75;;;-144.43;39.46
37486;BME280;23341;50.296;18.960;2022-11-03T13:50:42;113062.75;;;-144.43;40.91
37486;BME280;23341;50.296;18.960;2022-11-03T13:56:22;113062.75;;;-144.43;41.83
37486;BME280;23341;50.296;18.960;2022-11-03T14:02:19;113062.75;;;-144.43;41.99
37486;BME280;23341;50.296;18.960;2022-11-03T14:08:17;113062.75;;;-144.43;43.44
37486;BME280;23341;50.296;18.960;2022-11-03T14:13:55;113062.75;;;-144.43;44.21
37486;BME280;23341;50.296;18.960;2022-11-03T14:19:32;113062.75;;;-144.43;44.06
37486;BME280;23341;50.296;18.960;2022-11-03T14:25:14;113062.75;;;-144.43;45.18
37486;BME280;23341;50.296;18.960;2022-11-03T14:30:52;113062.75;;;-144.43;45.77
37486;BME280;23341;50.296;18.960;2022-11-03T14:36:31;113062.75;;;-144.43;46.85
37486;BME280;23341;50.296;18.960;2022-11-03T14:42:10;113062.75;;;-144.43;47.11
37486;BME280;23341;50.296;18.960;2022-11-03T14:47:49;113062.75;;;-144.43;47.17
37486;BME280;23341;50.296;18.960;2022-11-03T14:53:26;113062.75;;;-144.43;48.70
37486;BME280;23341;50.296;18.960;2022-11-03T14:59:03;113062.75;;;-144.43;51.03
37486;BME280;23341;50.296;18.960;2022-11-03T15:04:41;113062.75;;;-144.43;53.20
37486;BME280;23341;50.296;18.960;2022-11-03T15:10:21;113062.75;;;-144.43;53.63
37486;BME280;23341;50.296;18.960;2022-11-03T15:15:58;113062.75;;;-144.43;54.24
37486;BME280;23341;50.296;18.960;2022-11-03T15:21:36;113062.75;;;-144.43;54.04
37486;BME280;23341;50.296;18.960;2022-11-03T15:27:13;113062.75;;;-144.43;55.38
37486;BME280;23341;50.296;18.960;2022-11-03T15:32:50;113062.75;;;-144.43;55.99
37486;BME280;23341;50.296;18.960;2022-11-03T15:38:28;113062.75;;;-144.43;56.27
37486;BME280;23341;50.296;18.960;2022-11-03T15:44:05;113062.75;;;-144.43;57.08
37486;BME280;23341;50.296;18.960;2022-11-03T15:49:42;113062.75;;;-144.43;57.76
37486;BME280;23341;50.296;18.960;2022-11-03T15:55:20;113062.75;;;-144.43;58.85
37486;BME280;23341;50.296;18.960;2022-11-03T16:00:58;113062.75;;;-144.43;59.54
37486;BME280;23341;50.296;18.960;2022-11-03T16:06:35;113062.75;;;-144.43;59.87
37486;BME280;23341;50.296;18.960;2022-11-03T16:12:30;113062.75;;;-144.43;60.73
37486;BME280;23341;50.296;18.960;2022-11-03T16:18:07;113062.75;;;-144.43;61.27
37486;BME280;23341;50.296;18.960;2022-11-03T16:23:44;113062.75;;;-144.43;62.66
37486;BME280;23341;50.296;18.960;2022-11-03T16:29:22;113062.75;;;-144.43;63.17
37486;BME280;23341;50.296;18.960;2022-11-03T16:34:59;113062.75;;;-144.43;63.88
37486;BME280;23341;50.296;18.960;2022-11-03T16:40:29;113062.75;;;-144.43;64.77
37486;BME280;23341;50.296;18.960;2022-11-03T16:46:07;113062.75;;;-144.43;65.89
37486;BME280;23341;50.296;18.960;2022-11-03T16:51:44;113062.75;;;-144.43;66.38
37486;BME280;23341;50.296;18.960;2022-11-03T16:57:23;113062.75;;;-144.43;66.85
37486;BME280;23341;50.296;18.960;2022-11-03T17:03:01;113062.75;;;-144.43;67.88
37486;BME280;23341;50.296;18.960;2022-11-03T17:08:38;113062.75;;;-144.43;67.84
37486;BME280;23341;50.296;18.960;2022-11-03T17:14:15;113062.75;;;-144.43;68.92
37486;BME280;23341;50.296;18.960;2022-11-03T17:19:53;113062.75;;;-144.43;69.84
37486;BME280;23341;50.296;18.960;2022-11-03T17:25:30;113062.75;;;-144.43;70.08
37486;BME280;23341;50.296;18.960;2022-11-03T17:31:07;113062.75;;;-144.43;70.03
37486;BME280;23341;50.296;18.960;2022-11-03T17:36:45;113062.75;;;-144.43;70.04
37486;BME280;23341;50.296;18.960;2022-11-03T17:42:24;113062.75;;;-144.43;67.88
37486;BME280;23341;50.296;18.960;2022-11-03T17:48:02;113062.75;;;-144.43;67.32
37486;BME280;23341;50.296;18.960;2022-11-03T17:53:41;113062.75;;;-144.43;67.51
37486;BME280;23341;50.296;18.960;2022-11-03T17:59:19;113062.75;;;-144.43;67.17
37486;BME280;23341;50.296;18.960;2022-11-03T18:05:00;113062.75;;;-144.43;67.35
37486;BME280;23341;50.296;18.960;2022-11-03T18:10:46;113062.75;;;-144.43;67.26
37486;BME280;23341;50.296;18.960;2022-11-03T18:16:25;113062.75;;;-144.43;67.02
37486;BME280;23341;50.296;18.960;2022-11-03T18:22:02;113062.75;;;-144.43;67.04
37486;BME280;23341;50.296;18.960;2022-11-03T18:27:40;113062.75;;;-144.43;67.45
37486;BME280;23341;50.296;18.960;2022-11-03T18:33:22;113062.75;;;-144.43;67.76
37486;BME280;23341;50.296;18.960;2022-11-03T18:39:00;113062.75;;;-144.43;68.03
37486;BME280;23341;50.296;18.960;2022-11-03T18:44:38;113062.75;;;-144.43;66.94
37486;BME280;23341;50.296;18.960;2022-11-03T18:50:21;113062.75;;;-144.43;66.58
37486;BME280;23341;50.296;18.960;2022-11-03T18:55:59;113062.75;;;-144.43;66.41
37486;BME280;23341;50.296;18.960;2022-11-03T19:01:37;113062.75;;;-144.43;66.47
37486;BME280;23341;50.296;18.960;2022-11-03T19:07:17;113062.75;;;-144.43;66.37
37486;BME280;23341;50.296;18.960;2022-11-03T19:12:56;113062.75;;;-144.43;66.33
37486;BME280;23341;50.296;18.960;2022-11-03T19:18:34;113062.75;;;-144.43;66.67
37486;BME280;23341;50.296;18.960;2022-11-03T19:24:12;113062.75;;;-144.43;66.39
37486;BME280;23341;50.296;18.960;2022-11-03T19:29:49;113062.75;;;-144.43;65.93
37486;BME280;23341;50.296;18.960;2022-11-03T19:35:30;113062.75;;;-144.43;66.72
37486;BME280;23341;50.296;18.960;2022-11-03T19:41:11;113062.75;;;-144.43;67.07
37486;BME280;23341;50.296;18.960;2022-11-03T19:47:00;113062.75;;;-144.43;67.24
37486;BME280;23341;50.296;18.960;2022-11-03T19:52:41;113062.75;;;-144.43;67.94
37486;BME280;23341;50.296;18.960;2022-11-03T19:58:20;113062.75;;;-144.43;67.98
37486;BME280;23341;50.296;18.960;2022-11-03T20:03:58;113062.75;;;-144.43;67.91
37486;BME280;23341;50.296;18.960;2022-11-03T20:09:36;113062.75;;;-144.43;68.17
37486;BME280;23341;50.296;18.960;2022-11-03T20:15:16;113062.75;;;-144.43;68.22
37486;BME280;23341;50.296;18.960;2022-11-03T20:20:53;113062.75;;;-144.43;69.09
37486;BME280;23341;50.296;18.960;2022-11-03T20:26:32;113062.75;;;-144.43;68.53
37486;BME280;23341;50.296;18.960;2022-11-03T20:32:10;113062.75;;;-144.43;68.61
37486;BME280;23341;50.296;18.960;2022-11-03T20:37:57;113062.75;;;-144.43;69.30
37486;BME280;23341;50.296;18.960;2022-11-03T20:43:38;113062.75;;;-144.43;68.90
37486;BME280;23341;50.296;18.960;2022-11-03T20:49:16;113062.75;;;-144.43;68.31
37486;BME280;23341;50.296;18.960;2022-11-03T20:54:53;113062.75;;;-144.43;69.66
37486;BME280;23341;50.296;18.960;2022-11-03T21:00:34;113062.75;;;-144.43;70.65
37486;BME280;23341;50.296;18.960;2022-11-03T21:06:12;113062.75;;;-144.43;71.16
37486;BME280;23341;50.296;18.960;2022-11-03T21:11:51;113062.75;;;-144.43;70.15
37486;BME280;23341;50.296;18.960;2022-11-03T21:17:29;113062.75;;;-144.43;71.32
37486;BME280;23341;50.296;18.960;2022-11-03T21:23:24;113062.75;;;-144.43;71.49
37486;BME280;23341;50.296;18.960;2022-11-03T21:29:05;113062.75;;;-144.43;72.19
37486;BME280;23341;50.296;18.960;2022-11-03T21:35:04;113062.75;;;-144.43;71.84
37486;BME280;23341;50.296;18.960;2022-11-03T21:40:35;113062.75;;;-144.43;72.53
37486;BME280;23341;50.296;18.960;2022-11-03T21:46:17;113062.75;;;-144.43;72.76
37486;BME280;23341;50.296;18.960;2022-11-03T21:51:55;113062.75;;;-144.43;72.39
37486;BME280;23341;50.296;18.960;2022-11-03T21:57:33;113062.75;;;-144.43;71.90
37486;BME280;23341;50.296;18.960;2022-11-03T22:03:10;113062.75;;;-144.43;72.77
37486;BME280;23341;50.296;18.960;2022-11-03T22:08:48;113062.75;;;-144.43;73.42
37486;BME280;23341;50.296;18.960;2022-11-03T22:14:25;113062.75;;;-144.43;73.37
37486;BME280;23341;50.296;18.960;2022-11-03T22:20:16;113062.75;;;-144.43;72.93
37486;BME280;23341;50.296;18.960;2022-11-03T22:26:13;113062.75;;;-144.43;72.00
37486;BME280;23341;50.296;18.960;2022-11-03T22:32:12;113062.75;;;-144.43;73.45
37486;BME280;23341;50.296;18.960;2022-11-03T22:38:00;113062.75;;;-144.43;73.50
37486;BME280;23341;50.296;18.960;2022-11-03T22:43:38;113062.75;;;-144.43;74.85
37486;BME280;23341;50.296;18.960;2022-11-03T22:49:32;113062.75;;;-144.43;75.18
37486;BME280;23341;50.296;18.960;2022-11-03T22:55:09;113062.75;;;-144.43;75.63
37486;BME280;23341;50.296;18.960;2022-11-03T23:00:47;113062.75;;;-144.43;75.74
37486;BME280;23341;50.296;18.960;2022-11-03T23:06:25;113062.75;;;-144.43;75.73
37486;BME280;23341;50.296;18.960;2022-11-03T23:12:03;113062.75;;;-144.43;75.92
37486;BME280;23341;50.296;18.960;2022-11-03T23:17:41;113062.75;;;-144.43;75.90
37486;BME280;23341;50.296;18.960;2022-11-03T23:23:36;113062.75;;;-144.43;74.45
37486;BME280;23341;50.296;18.960;2022-11-03T23:29:31;113062.75;;;-144.43;76.88
37486;BME280;23341;50.296;18.960;2022-11-03T23:35:09;113062.75;;;-144.43;77.03
37486;BME280;23341;50.296;18.960;2022-11-03T23:40:46;113062.75;;;-144.43;77.75
37486;BME280;23341;50.296;18.960;2022-11-03T23:46:25;113062.75;;;-144.43;78.02
37486;BME280;23341;50.296;18.960;2022-11-03T23:52:14;113062.75;;;-144.43;77.47
37486;BME280;23341;50.296;18.960;2022-11-03T23:57:51;113062.75;;;-144.43;77.82
